Otter Rock, OR (97369)

1:09 AM PST on December 25, 2014 (GMT -0800)
Sea Crest | Change Station
CLOSE
Current Station
Personal Weather Station
Location: Otter Rock, OR
Elevation: 112 ft
Nearby Weather Stations

Elev 112 ft 44.76 °N, 124.06 °W | Updated 14 seconds ago

Overcast
Overcast
46.9 °F
Feels Like 47 °F
N
2.5
Wind Variable Wind from NNE
Gusts 5.8 mph

Today
High -- | Low -- °F
--% Chance of Precip.
Yesterday
High -- | Low -- °F
Precip. -- in
7:52 AM 4:40 PM
Waxing Crescent, 15% visible
Pressure 30.18 in
Visibility 7.0 miles
Clouds Scattered Clouds 3400 ft
Mostly Cloudy 4600 ft
Mostly Cloudy 5500 ft
Windchill 47 °F
Dew Point 42 °F
Humidity 82%
Rainfall 0.00 in
Snow Depth Not available.
UV 0 out of 12
Pollen .50 out of 12
Air Quality Not available.
Flu Activity Not available.
METAR KONP 250855Z AUTO 31013G20KT 7SM SCT034 BKN046 BKN055 09/05 A3018 RMK AO2

More Conditions Fewer Conditions

Pressure 30.18 in
Visibility 7.0 miles
Clouds Scattered Clouds 3400 ft
Mostly Cloudy 4600 ft
Mostly Cloudy 5500 ft
Windchill 47 °F
Dew Point 42 °F
Humidity 82%
Rainfall 0.00 in
Snow Depth Not available.
UV 0 out of 12
Pollen .50 out of 12
Air Quality Not available.
Flu Activity Not available.
METAR KONP 250855Z AUTO 31013G20KT 7SM SCT034 BKN046 BKN055 09/05 A3018 RMK AO2

More Conditions Fewer Conditions

10-Day Weather Forecast

Almanac

Astronomy

Dec. 25, 2014 Rise Set
Actual Time
Civil Twilight
Nautical Twilight
Astronomical Twilight
Moon
Length of Visible Light
Length of Day
Tomorrow will be .
, % of the Moon is Illuminated

Today's Extremes

State Highs State Lows

Community

WunderPhotos

Upload Photos

1,780,250 photos uploaded!

WunderBlogs® & News

Nearby

Air Quality

  Air Quality AQ Index Pollutant
Not available.

Snow Depth

Station Depth Elevation

Earthquake Activity

City Distance Mag. Time & Date
Minimum magnitude displayed is 2.5.

Coastal Water Temperatures

Place Temperature

Nearby Weather Stations